Time;durP1;ratioP1;P1;durP2;ratioP2;P2;SDS_P1;SDS_P2;PMS_P1;PMS_P2;Temp;Humidity;BMP_temperature;BMP_pressure;BME280_temperature;BME280_humidity;BME280_pressure;Samples;Min_cycle;Max_cycle;Signal;HPM_P1;HPM_P2
2023/06/22 00:01:20;;;;;;;12.03;10.83;;;;;;;23.07;70.93;97334.94;5026994;28;20195;-73
2023/06/22 00:03:48;;;;;;;13.43;10.63;;;;;;;23.02;70.80;97347.75;5027236;28;20208;-74
2023/06/22 00:06:15;;;;;;;11.70;10.50;;;;;;;22.91;70.68;97337.31;5025789;28;20766;-74
2023/06/22 00:08:43;;;;;;;12.27;10.97;;;;;;;23.03;70.41;97359.97;5027114;28;20212;-72
2023/06/22 00:11:10;;;;;;;12.73;10.40;;;;;;;23.01;69.35;97341.63;5026082;28;20206;-74
2023/06/22 00:13:38;;;;;;;12.07;10.73;;;;;;;22.83;69.86;97331.91;5027606;28;20244;-73
2023/06/22 00:16:05;;;;;;;11.53;10.33;;;;;;;22.69;69.33;97329.66;5029554;28;20208;-75
2023/06/22 00:18:32;;;;;;;14.87;10.27;;;;;;;22.67;70.36;97337.72;5031260;28;20316;-74
2023/06/22 00:20:59;;;;;;;15.73;11.17;;;;;;;22.67;70.26;97338.56;5030284;28;20763;-73
2023/06/22 00:23:26;;;;;;;13.37;10.97;;;;;;;22.58;70.61;97338.53;5029952;28;20297;-75
2023/06/22 00:25:53;;;;;;;13.70;11.17;;;;;;;22.11;73.08;97337.44;5030656;28;20217;-73
2023/06/22 00:28:21;;;;;;;12.57;11.23;;;;;;;22.33;71.83;97334.56;5028655;28;20205;-74
2023/06/22 00:30:49;;;;;;;12.80;11.13;;;;;;;22.27;71.90;97343.03;5030499;28;20251;-73
2023/06/22 00:33:18;;;;;;;12.33;11.20;;;;;;;22.42;71.97;97344.31;5011969;28;20223;-78
2023/06/22 00:35:45;;;;;;;12.83;11.53;;;;;;;22.25;71.82;97352.03;5029999;28;20683;-73
2023/06/22 00:38:12;;;;;;;12.70;11.43;;;;;;;22.27;71.75;97358.03;5029891;28;20241;-74
2023/06/22 00:40:41;;;;;;;11.27;10.07;;;;;;;22.23;72.06;97356.63;5029540;28;20246;-76
2023/06/22 00:43:08;;;;;;;13.07;11.80;;;;;;;22.29;71.32;97358.72;5031130;28;20212;-76
2023/06/22 00:45:36;;;;;;;12.53;11.27;;;;;;;22.30;70.98;97355.94;5028677;28;20209;-72
2023/06/22 00:48:03;;;;;;;15.37;11.60;;;;;;;22.43;70.35;97364.47;5030497;28;20657;-76
2023/06/22 00:50:33;;;;;;;13.20;11.00;;;;;;;22.32;70.46;97356.66;5028615;28;20289;-76
2023/06/22 00:53:08;;;;;;;12.23;10.93;;;;;;;22.21;71.03;97356.78;5030137;28;20208;-74
2023/06/22 00:55:38;;;;;;;12.53;11.23;;;;;;;22.20;71.75;97362.16;5029397;28;20215;-73
2023/06/22 00:58:10;;;;;;;13.77;11.27;;;;;;;21.92;72.25;97360.25;5010814;28;20256;-78
2023/06/22 01:00:39;;;;;;;13.80;11.03;;;;;;;21.87;72.78;97358.00;5029639;28;20546;-73
2023/06/22 01:03:09;;;;;;;16.70;12.47;;;;;;;21.70;73.83;97364.69;5028168;28;20656;-76
2023/06/22 01:05:38;;;;;;;14.53;12.53;;;;;;;21.52;74.48;97357.50;5011750;28;20203;-73
2023/06/22 01:08:12;;;;;;;14.47;12.30;;;;;;;21.46;74.45;97352.75;5028256;28;20242;-73
2023/06/22 01:10:59;;;;;;;14.97;12.63;;;;;;;21.38;74.38;97352.56;5029159;28;20213;-75
2023/06/22 01:13:35;;;;;;;13.97;12.10;;;;;;;21.33;74.46;97354.75;5029664;28;20194;-77
2023/06/22 01:16:45;;;;;;;15.00;11.50;;;;;;;21.01;75.76;97339.78;5027770;28;20203;-82
2023/06/22 01:20:11;;;;;;;16.30;11.40;;;;;;;20.75;76.39;97330.56;5010132;28;20296;-74
2023/06/22 01:23:25;;;;;;;13.47;12.07;;;;;;;20.82;75.99;97334.38;5010724;28;20202;-74
2023/06/22 01:26:27;;;;;;;14.27;11.87;;;;;;;20.90;75.55;97329.31;5027349;28;20273;-80
2023/06/22 01:29:48;;;;;;;16.20;12.77;;;;;;;20.80;76.21;97322.28;5026634;28;20293;-79
2023/06/22 01:33:12;;;;;;;16.10;12.27;;;;;;;20.61;76.63;97304.53;5028094;28;20697;-78
2023/06/22 01:36:32;;;;;;;17.83;12.97;;;;;;;20.74;76.53;97323.63;5020756;28;20197;-73
2023/06/22 01:39:53;;;;;;;15.27;12.20;;;;;;;20.85;76.04;97318.34;5028044;28;20249;-72
2023/06/22 01:43:14;;;;;;;15.87;13.20;;;;;;;20.67;77.79;97317.19;5026579;28;20205;-78
2023/06/22 01:46:34;;;;;;;13.73;12.33;;;;;;;20.62;78.43;97316.75;5008692;28;20525;-75
2023/06/22 01:49:55;;;;;;;12.67;11.37;;;;;;;20.58;78.65;97317.94;5028149;28;20604;-81
2023/06/22 01:53:16;;;;;;;12.97;10.63;;;;;;;21.00;77.09;97316.19;5026740;28;20289;-81
2023/06/22 01:56:36;;;;;;;14.93;11.50;;;;;;;21.30;75.80;97321.59;5027712;28;20207;-78
2023/06/22 02:00:06;;;;;;;11.20;10.00;;;;;;;21.40;74.82;97330.38;5026090;28;20226;-75
2023/06/22 02:03:39;;;;;;;11.83;10.63;;;;;;;21.39;74.71;97335.78;5026960;28;20195;-74
2023/06/22 02:07:00;;;;;;;13.20;11.80;;;;;;;21.15;74.75;97317.59;5028536;28;20235;-73
2023/06/22 02:10:21;;;;;;;15.93;12.40;;;;;;;21.43;73.70;97338.03;5010214;28;20597;-78
2023/06/22 02:13:43;;;;;;;13.47;12.17;;;;;;;21.37;73.37;97346.44;5026506;28;20199;-76
2023/06/22 02:17:07;;;;;;;15.03;12.47;;;;;;;21.23;73.73;97341.50;5025855;28;20362;-73
2023/06/22 02:20:28;;;;;;;13.40;12.00;;;;;;;21.08;74.68;97336.69;5026821;28;20725;-74
2023/06/22 02:23:49;;;;;;;13.30;11.03;;;;;;;21.35;73.30;97344.94;5027206;28;20207;-76
2023/06/22 02:27:10;;;;;;;15.30;11.90;;;;;;;21.25;73.75;97338.72;5026910;28;20200;-75
2023/06/22 02:30:30;;;;;;;13.87;12.37;;;;;;;21.30;73.67;97347.94;5025569;28;20200;-76
2023/06/22 02:33:51;;;;;;;14.83;12.43;;;;;;;21.19;74.02;97347.16;5025006;28;20212;-74
2023/06/22 02:37:12;;;;;;;14.47;11.97;;;;;;;21.02;74.71;97343.28;5027086;28;20218;-72
2023/06/22 02:40:33;;;;;;;16.67;11.83;;;;;;;20.42;76.96;97349.09;5026879;28;20208;-72
2023/06/22 02:43:53;;;;;;;16.57;12.70;;;;;;;20.29;78.36;97345.75;5025060;28;20637;-74
2023/06/22 02:47:14;;;;;;;13.57;11.97;;;;;;;20.19;78.72;97344.78;5025166;28;20206;-78
2023/06/22 02:50:35;;;;;;;15.67;12.23;;;;;;;20.35;78.34;97347.91;5018999;28;20639;-74
2023/06/22 02:53:57;;;;;;;16.67;12.53;;;;;;;20.61;77.34;97346.63;5005958;28;20290;-73
2023/06/22 02:57:18;;;;;;;15.03;10.90;;;;;;;20.86;76.06;97354.22;4988810;28;20207;-76
2023/06/22 03:00:39;;;;;;;13.13;11.33;;;;;;;20.99;75.11;97349.63;4987968;28;20207;-77
2023/06/22 03:04:00;;;;;;;13.43;10.90;;;;;;;20.52;76.36;97352.66;4988695;28;20583;-74
2023/06/22 03:07:21;;;;;;;14.37;10.90;;;;;;;20.31;77.08;97359.63;5006893;28;20207;-76
2023/06/22 03:10:42;;;;;;;12.47;10.53;;;;;;;20.39;76.24;97364.28;4989490;28;20203;-74
2023/06/22 03:14:03;;;;;;;12.83;10.33;;;;;;;20.33;76.07;97349.81;5005182;28;20588;-77
2023/06/22 03:17:24;;;;;;;11.87;10.67;;;;;;;20.16;76.46;97350.28;4996825;28;20217;-75
2023/06/22 03:20:46;;;;;;;13.37;10.97;;;;;;;19.95;77.33;97344.06;4995593;28;20245;-79
2023/06/22 03:24:07;;;;;;;16.77;11.27;;;;;;;19.79;78.58;97354.13;5025401;28;20704;-79
2023/06/22 03:27:27;;;;;;;14.33;12.73;;;;;;;19.71;79.15;97372.28;4991182;28;20212;-82
2023/06/22 03:30:48;;;;;;;16.27;13.57;;;;;;;19.85;78.35;97372.88;5007206;28;20210;-77
2023/06/22 03:34:10;;;;;;;16.17;14.47;;;;;;;19.82;78.28;97370.50;5008416;28;20260;-76
2023/06/22 03:37:32;;;;;;;19.67;15.37;;;;;;;19.85;78.46;97364.16;5009601;28;20202;-78
2023/06/22 03:40:53;;;;;;;21.77;16.30;;;;;;;19.64;79.44;97371.09;5022224;28;20289;-75
2023/06/22 03:44:14;;;;;;;22.97;16.27;;;;;;;19.57;79.68;97369.88;4988166;28;20207;-81
2023/06/22 03:47:34;;;;;;;20.93;16.40;;;;;;;20.05;77.99;97372.16;4988401;28;20254;-75
2023/06/22 03:50:55;;;;;;;20.77;15.40;;;;;;;20.42;76.44;97375.41;5007963;28;20198;-78
2023/06/22 03:54:16;;;;;;;15.93;14.23;;;;;;;21.00;74.10;97371.50;5010294;28;20214;-78
2023/06/22 03:57:36;;;;;;;18.60;13.57;;;;;;;21.61;71.98;97377.81;5008797;28;20222;-78
2023/06/22 04:00:58;;;;;;;19.50;13.97;;;;;;;22.07;69.90;97374.75;5008330;28;20202;-78
2023/06/22 04:04:18;;;;;;;17.90;13.73;;;;;;;22.09;69.46;97368.34;5009858;28;20255;-80
2023/06/22 04:07:39;;;;;;;19.60;13.67;;;;;;;22.46;68.25;97366.00;5009998;28;20205;-80
2023/06/22 04:11:00;;;;;;;14.57;12.47;;;;;;;22.35;68.81;97364.31;5017202;28;20287;-75
2023/06/22 04:14:21;;;;;;;16.67;13.43;;;;;;;22.56;67.44;97365.06;5008436;28;20633;-83
2023/06/22 04:17:42;;;;;;;14.40;12.43;;;;;;;22.80;67.73;97374.41;5013090;28;20218;-76
2023/06/22 04:21:02;;;;;;;14.93;12.30;;;;;;;22.95;67.42;97373.06;5010080;28;20225;-80
2023/06/22 04:24:23;;;;;;;13.67;12.20;;;;;;;23.43;65.32;97373.91;5023256;28;20214;-77
2023/06/22 04:27:44;;;;;;;17.13;12.13;;;;;;;22.91;67.33;97375.16;5028660;28;20257;-78
2023/06/22 04:31:05;;;;;;;13.43;11.50;;;;;;;23.02;66.41;97358.31;5024795;28;20248;-79
2023/06/22 04:34:26;;;;;;;15.33;12.50;;;;;;;23.16;67.64;97392.25;5029757;28;20203;-84
2023/06/22 04:37:48;;;;;;;14.17;12.47;;;;;;;23.31;66.32;97386.41;5029928;28;20203;-79
2023/06/22 04:41:14;;;;;;;15.17;12.23;;;;;;;23.36;66.74;97381.56;5013752;28;20216;-79
2023/06/22 04:44:34;;;;;;;13.30;11.40;;;;;;;23.61;65.54;97388.06;5029419;28;20202;-81
2023/06/22 04:47:55;;;;;;;16.40;12.37;;;;;;;23.59;65.83;97384.75;5038779;28;20242;-81
2023/06/22 04:51:16;;;;;;;12.37;11.07;;;;;;;23.73;64.98;97386.94;5033319;28;20210;-84
2023/06/22 04:54:36;;;;;;;13.50;11.57;;;;;;;23.95;64.01;97385.75;5029874;28;20235;-82
2023/06/22 04:58:04;;;;;;;13.50;12.03;;;;;;;24.37;62.99;97380.88;5027905;28;20281;-78
2023/06/22 05:01:25;;;;;;;15.27;11.63;;;;;;;24.42;63.30;97394.53;5025929;28;20206;-80
2023/06/22 05:04:51;;;;;;;15.27;11.93;;;;;;;24.78;61.20;97385.69;5028830;28;20197;-86
2023/06/22 05:08:12;;;;;;;16.13;11.20;;;;;;;24.62;61.88;97393.44;5028309;28;20216;-82
2023/06/22 05:11:32;;;;;;;13.70;11.27;;;;;;;24.14;63.68;97385.72;5028004;28;20209;-78
2023/06/22 05:14:53;;;;;;;14.73;11.57;;;;;;;24.47;62.20;97387.81;5026531;28;20716;-85
2023/06/22 05:18:14;;;;;;;12.73;11.27;;;;;;;24.46;61.67;97348.25;5027431;28;20727;-80
2023/06/22 05:21:34;;;;;;;12.00;10.73;;;;;;;25.05;60.83;97393.59;5028673;28;20969;-81
2023/06/22 05:24:55;;;;;;;13.10;11.23;;;;;;;25.62;59.77;97382.53;5028554;28;20251;-84
2023/06/22 05:28:16;;;;;;;24.73;12.23;;;;;;;25.94;56.84;97371.31;5026941;28;20212;-86
2023/06/22 05:31:37;;;;;;;12.20;10.07;;;;;;;26.18;55.93;97389.19;5026448;28;20279;-78
2023/06/22 05:34:57;;;;;;;11.33;9.97;;;;;;;25.78;57.03;97381.81;5028745;28;20296;-84
2023/06/22 05:38:18;;;;;;;14.87;11.17;;;;;;;26.50;55.68;97389.38;5028489;28;20220;-79
2023/06/22 05:41:39;;;;;;;201.70;24.37;;;;;;;26.76;55.27;97392.81;5027286;28;20202;-81
2023/06/22 05:45:00;;;;;;;11.87;10.43;;;;;;;27.11;54.61;97384.56;5026263;28;20210;-80
2023/06/22 05:48:21;;;;;;;17.10;13.73;;;;;;;27.41;55.06;97390.28;5026935;28;20272;-78
2023/06/22 05:51:41;;;;;;;16.30;12.10;;;;;;;27.24;54.14;97390.22;5027880;28;20294;-78
2023/06/22 05:55:02;;;;;;;10.87;9.73;;;;;;;27.40;53.04;97394.78;5027433;28;20261;-77
2023/06/22 05:58:23;;;;;;;11.27;9.77;;;;;;;27.22;53.38;97389.56;5025784;28;20191;-80
2023/06/22 06:01:44;;;;;;;13.43;10.33;;;;;;;27.15;54.87;97387.72;5026086;28;20191;-80
2023/06/22 06:05:04;;;;;;;14.87;12.10;;;;;;;27.10;55.40;97387.41;5027147;28;20556;-79
2023/06/22 06:08:25;;;;;;;12.00;10.80;;;;;;;26.89;55.99;97374.56;5027134;28;20289;-79
2023/06/22 06:11:46;;;;;;;12.10;9.57;;;;;;;27.67;53.95;97385.63;5026364;28;20198;-80
2023/06/22 06:15:06;;;;;;;13.07;11.17;;;;;;;28.10;53.42;97387.91;5025329;28;20210;-82
2023/06/22 06:18:07;;;;;;;15.47;10.67;;;;;;;27.42;54.88;97382.13;5026669;28;20210;-80
2023/06/22 06:21:28;;;;;;;11.40;10.00;;;;;;;27.35;55.06;97376.63;5027208;28;20206;-77
2023/06/22 06:24:48;;;;;;;11.87;10.67;;;;;;;27.59;54.13;97351.88;5025956;28;20706;-79
2023/06/22 06:28:10;;;;;;;14.53;11.37;;;;;;;28.05;52.91;97390.22;5024755;28;20824;-76
2023/06/22 06:31:30;;;;;;;14.43;11.07;;;;;;;28.24;53.23;97384.53;5025361;28;20544;-76
2023/06/22 06:34:51;;;;;;;16.63;11.53;;;;;;;28.57;51.65;97374.59;5016423;28;20673;-80
2023/06/22 06:38:12;;;;;;;16.47;10.70;;;;;;;28.79;50.34;97393.31;5021990;28;20199;-78
2023/06/22 06:41:33;;;;;;;14.63;10.63;;;;;;;28.45;51.30;97395.47;5024661;28;20283;-77
2023/06/22 06:44:55;;;;;;;14.57;10.37;;;;;;;28.33;52.11;97399.50;4991438;28;20226;-80
2023/06/22 06:48:15;;;;;;;12.40;10.70;;;;;;;28.64;51.48;97396.91;5026477;28;20263;-74
2023/06/22 06:51:36;;;;;;;10.70;9.67;;;;;;;28.84;52.62;97388.31;5026488;28;20198;-78
2023/06/22 06:54:57;;;;;;;13.90;10.87;;;;;;;28.36;52.94;97382.34;5009476;28;20675;-76
2023/06/22 06:57:54;;;;;;;12.10;10.90;;;;;;;28.67;51.96;97388.56;5006135;28;20230;-80
2023/06/22 07:00:21;;;;;;;13.73;10.37;;;;;;;28.89;50.93;97374.47;5027015;28;20305;-77
2023/06/22 07:02:49;;;;;;;12.10;10.10;;;;;;;28.92;50.47;97374.94;5025241;28;20687;-78
2023/06/22 07:05:16;;;;;;;10.67;9.57;;;;;;;29.12;50.71;97377.94;5027367;28;20213;-76
2023/06/22 07:07:43;;;;;;;11.00;9.50;;;;;;;29.55;49.72;97379.19;5026344;28;20211;-76
2023/06/22 07:10:10;;;;;;;11.20;9.47;;;;;;;29.77;47.99;97378.34;5025784;28;20194;-75
2023/06/22 07:13:17;;;;;;;10.50;9.40;;;;;;;29.77;48.58;97385.50;5026478;28;20205;-77
2023/06/22 07:16:38;;;;;;;13.03;9.47;;;;;;;29.94;48.07;97392.38;5023561;28;20208;-78
2023/06/22 07:19:59;;;;;;;20.00;12.23;;;;;;;30.09;47.62;97390.56;5025522;28;20241;-76
2023/06/22 07:23:20;;;;;;;14.03;10.33;;;;;;;29.77;48.35;97380.16;5027036;28;20218;-75
2023/06/22 07:26:45;;;;;;;11.73;10.47;;;;;;;29.44;49.21;97379.59;5031075;28;20335;-78
2023/06/22 07:30:06;;;;;;;10.67;9.57;;;;;;;29.89;47.94;97390.22;5049836;28;20240;-80
2023/06/22 07:33:27;;;;;;;10.60;9.50;;;;;;;29.98;47.41;97388.31;5048442;28;20204;-77
2023/06/22 07:36:48;;;;;;;10.07;9.00;;;;;;;29.74;48.17;97386.69;5010076;28;20234;-80
2023/06/22 07:40:09;;;;;;;10.40;9.37;;;;;;;29.48;48.58;97380.91;5020807;28;20264;-76
2023/06/22 07:43:30;;;;;;;11.07;9.53;;;;;;;29.70;47.79;97382.69;5031937;28;20288;-77
2023/06/22 07:46:46;;;;;;;10.50;9.40;;;;;;;29.73;48.85;97361.03;5048365;28;20235;-79
2023/06/22 07:49:13;;;;;;;12.23;9.17;;;;;;;30.10;46.98;97368.16;5014374;28;20270;-81
2023/06/22 07:51:40;;;;;;;12.77;9.23;;;;;;;29.94;47.16;97369.16;5050409;28;20202;-81
2023/06/22 07:54:09;;;;;;;9.97;8.97;;;;;;;30.26;47.03;97374.13;5048662;28;20581;-78
2023/06/22 07:56:37;;;;;;;10.23;9.20;;;;;;;30.24;46.48;97378.00;5050154;28;20263;-77
2023/06/22 07:59:04;;;;;;;9.57;8.67;;;;;;;30.10;46.25;97370.81;5037460;28;20241;-79
2023/06/22 08:01:31;;;;;;;11.47;10.37;;;;;;;29.91;47.23;97374.00;5030448;28;20198;-76
2023/06/22 08:03:58;;;;;;;12.33;10.23;;;;;;;29.20;47.63;97262.38;5029702;28;20223;-79
2023/06/22 08:06:25;;;;;;;12.97;11.00;;;;;;;29.76;47.03;97376.66;5027724;28;20198;-78
2023/06/22 08:08:54;;;;;;;11.03;9.93;;;;;;;29.78;46.24;97365.81;5038593;28;20216;-75
2023/06/22 08:11:23;;;;;;;11.77;10.57;;;;;;;29.81;46.76;97382.31;5047894;28;20205;-78
2023/06/22 08:13:51;;;;;;;15.43;10.80;;;;;;;29.94;46.73;97387.03;5049896;28;20215;-80
2023/06/22 08:16:18;;;;;;;12.37;10.47;;;;;;;29.88;47.50;97385.09;5047746;28;20666;-78
2023/06/22 08:18:45;;;;;;;10.37;9.30;;;;;;;29.78;46.77;97382.66;5049547;28;20255;-75
2023/06/22 08:21:12;;;;;;;10.77;8.70;;;;;;;29.79;45.97;97381.66;5048665;28;20279;-79
2023/06/22 08:23:39;;;;;;;12.00;8.23;;;;;;;29.70;44.86;97382.69;5030759;28;20528;-78
2023/06/22 08:26:06;;;;;;;9.70;8.70;;;;;;;29.61;44.47;97371.25;5049245;28;20235;-80
2023/06/22 08:28:33;;;;;;;11.20;9.23;;;;;;;29.56;45.59;97362.97;5047662;28;20693;-76
2023/06/22 08:31:03;;;;;;;8.40;7.60;;;;;;;29.64;46.02;97380.75;5049467;28;20232;-77
2023/06/22 08:33:30;;;;;;;10.10;8.90;;;;;;;29.48;45.65;97359.53;5048208;28;20293;-80
2023/06/22 08:35:59;;;;;;;11.13;9.07;;;;;;;29.29;47.89;97376.88;5049315;28;20208;-78
2023/06/22 08:38:26;;;;;;;12.87;10.97;;;;;;;29.03;49.51;97365.69;5048813;28;20233;-79
2023/06/22 08:40:53;;;;;;;13.70;11.70;;;;;;;28.62;51.57;97372.25;5031086;28;20208;-77
2023/06/22 08:43:21;;;;;;;15.60;11.70;;;;;;;28.71;51.10;97361.38;5049361;28;20214;-76
2023/06/22 08:45:48;;;;;;;12.67;10.77;;;;;;;28.75;51.04;97378.69;5047528;28;20231;-80
2023/06/22 08:48:15;;;;;;;12.83;10.50;;;;;;;28.56;50.20;97363.13;5050048;28;20248;-77
2023/06/22 08:50:42;;;;;;;14.83;13.07;;;;;;;28.79;49.87;97361.31;5047551;28;20593;-76
2023/06/22 08:53:09;;;;;;;17.23;11.47;;;;;;;28.80;49.50;97380.81;5049103;28;20213;-76
2023/06/22 08:55:36;;;;;;;12.07;10.57;;;;;;;28.89;49.41;97377.13;5047990;28;20233;-77
2023/06/22 08:58:03;;;;;;;12.00;10.80;;;;;;;28.89;49.71;97369.13;5048148;28;20244;-75
2023/06/22 09:00:34;;;;;;;10.40;9.30;;;;;;;29.12;47.88;97375.28;5048757;28;20210;-77
2023/06/22 09:03:01;;;;;;;13.47;8.87;;;;;;;29.36;46.80;97379.66;5047526;28;20196;-79
2023/06/22 09:05:29;;;;;;;11.13;9.73;;;;;;;29.04;49.39;97377.19;5048794;28;20210;-81
2023/06/22 09:07:58;;;;;;;11.20;9.40;;;;;;;28.69;51.75;97379.38;5047034;28;20205;-78
2023/06/22 09:10:26;;;;;;;13.00;10.67;;;;;;;28.97;51.20;97375.22;5048862;28;20232;-76
2023/06/22 09:12:53;;;;;;;10.10;9.10;;;;;;;29.04;50.53;97369.19;5047215;28;20785;-75
2023/06/22 09:15:20;;;;;;;10.90;9.67;;;;;;;29.36;49.64;97368.97;5048275;28;20202;-76
2023/06/22 09:17:48;;;;;;;11.27;9.93;;;;;;;28.98;49.51;97374.22;5048130;28;20202;-76
2023/06/22 09:20:15;;;;;;;11.23;9.47;;;;;;;28.92;49.97;97342.91;5047017;28;20723;-77
2023/06/22 09:22:42;;;;;;;10.87;9.17;;;;;;;29.48;48.43;97364.88;5048496;28;20202;-79
2023/06/22 09:25:09;;;;;;;11.43;9.47;;;;;;;29.18;47.68;97358.59;5046812;28;20206;-77
2023/06/22 09:31:00;;;;;;;8.70;7.80;;;;;;;29.33;45.04;97372.84;5048253;28;20201;-80
2023/06/22 09:33:27;;;;;;;8.73;7.93;;;;;;;29.24;44.61;97367.75;5046822;28;20206;-76
2023/06/22 09:35:56;;;;;;;10.87;8.60;;;;;;;29.36;43.40;97367.16;5029957;28;20641;-77
2023/06/22 09:38:23;;;;;;;9.13;8.23;;;;;;;29.16;43.98;97354.47;5046901;28;20206;-80
2023/06/22 09:40:50;;;;;;;10.10;8.73;;;;;;;29.39;43.67;97366.78;5048428;28;20233;-77
2023/06/22 09:43:17;;;;;;;11.30;8.07;;;;;;;29.30;44.35;97367.88;5047524;28;20243;-79
2023/06/22 09:45:44;;;;;;;8.77;7.50;;;;;;;29.08;43.63;97359.84;5029611;28;20205;-79
2023/06/22 09:48:11;;;;;;;9.10;7.70;;;;;;;28.90;44.31;97363.59;5047277;28;20233;-80
2023/06/22 09:50:38;;;;;;;8.50;7.70;;;;;;;28.90;43.19;97366.28;5046272;28;20202;-75
2023/06/22 09:53:05;;;;;;;9.47;7.50;;;;;;;28.78;43.26;97362.34;5048249;28;20254;-79
2023/06/22 09:55:33;;;;;;;8.73;8.00;;;;;;;28.77;44.41;97368.66;5046609;28;20202;-75
2023/06/22 09:58:00;;;;;;;12.00;7.27;;;;;;;28.40;46.56;97373.00;5047985;28;20229;-77
2023/06/22 10:00:28;;;;;;;9.50;8.20;;;;;;;28.14;48.82;97368.75;5046436;28;20307;-77
2023/06/22 10:02:55;;;;;;;12.23;8.77;;;;;;;28.17;49.66;97375.59;5048001;28;20585;-76
2023/06/22 10:05:27;;;;;;;9.97;8.70;;;;;;;28.19;50.73;97355.75;5047599;28;20220;-79
2023/06/22 10:07:54;;;;;;;17.20;12.93;;;;;;;28.49;50.00;97361.28;5046355;28;20613;-78
2023/06/22 10:10:21;;;;;;;8.83;8.03;;;;;;;28.39;49.75;97361.50;5047896;28;20209;-75
2023/06/22 10:12:57;;;;;;;9.60;8.37;;;;;;;28.43;49.70;97352.16;5046173;28;20244;-78
2023/06/22 10:15:24;;;;;;;10.50;7.67;;;;;;;28.42;47.26;97361.16;5047613;28;20646;-76
2023/06/22 10:17:51;;;;;;;9.13;7.73;;;;;;;28.38;47.21;97354.50;5046044;28;20283;-77
2023/06/22 10:20:20;;;;;;;8.97;7.03;;;;;;;28.58;44.66;97355.78;5047043;28;20287;-80
2023/06/22 10:22:47;;;;;;;9.23;7.57;;;;;;;28.82;44.08;97341.47;5047792;28;20244;-77
2023/06/22 10:25:14;;;;;;;7.97;6.80;;;;;;;29.06;42.04;97356.50;5046241;28;20186;-76
2023/06/22 10:27:42;;;;;;;10.70;6.97;;;;;;;29.46;39.72;97358.88;5029926;28;20197;-78
2023/06/22 10:30:12;;;;;;;7.87;7.07;;;;;;;29.70;39.86;97353.31;5039697;28;20224;-77
2023/06/22 10:32:42;;;;;;;9.53;6.90;;;;;;;30.12;39.16;97342.91;5027254;28;20209;-80
2023/06/22 10:35:10;;;;;;;7.63;6.57;;;;;;;30.06;39.75;97349.00;5026020;28;20565;-78
2023/06/22 10:37:38;;;;;;;7.47;6.77;;;;;;;29.94;40.01;97371.00;5027244;28;20221;-77
2023/06/22 10:40:05;;;;;;;7.73;6.60;;;;;;;29.84;40.13;97363.25;5026942;28;20240;-74
2023/06/22 10:42:35;;;;;;;7.13;6.30;;;;;;;29.97;39.56;97344.72;5025887;28;20300;-79
2023/06/22 10:45:06;;;;;;;7.17;6.47;;;;;;;29.95;40.73;97333.41;5009221;28;20644;-79
2023/06/22 10:47:34;;;;;;;7.20;6.40;;;;;;;29.87;40.49;97336.16;5025487;28;20237;-81
2023/06/22 10:50:02;;;;;;;7.77;6.97;;;;;;;30.10;39.72;97344.09;5027405;28;20267;-79
2023/06/22 10:52:30;;;;;;;7.43;6.73;;;;;;;29.96;40.90;97337.75;5025870;28;20217;-79
2023/06/22 10:54:58;;;;;;;6.80;6.17;;;;;;;30.10;39.05;97336.91;5009467;28;20283;-80
2023/06/22 10:57:25;;;;;;;8.37;7.00;;;;;;;30.23;39.00;97339.75;5026689;28;20276;-81
2023/06/22 10:59:52;;;;;;;10.63;6.57;;;;;;;30.38;39.85;97321.91;5025372;28;20616;-81
2023/06/22 11:02:20;;;;;;;7.70;6.77;;;;;;;30.28;40.46;97333.84;5027274;28;20230;-78
2023/06/22 11:04:47;;;;;;;8.83;7.60;;;;;;;30.05;40.47;97311.75;5025199;28;20681;-79
2023/06/22 11:07:15;;;;;;;7.77;6.83;;;;;;;29.73;41.48;97337.81;5025727;28;20206;-76
2023/06/22 11:09:45;;;;;;;7.27;6.57;;;;;;;29.56;43.19;97338.09;5025103;28;20198;-78
2023/06/22 11:12:12;;;;;;;8.73;7.80;;;;;;;29.62;43.42;97318.69;5026629;28;20279;-75
2023/06/22 11:14:40;;;;;;;15.30;7.73;;;;;;;29.71;43.84;97334.47;5026213;28;20215;-75
2023/06/22 11:17:07;;;;;;;10.03;7.33;;;;;;;30.09;42.15;97321.88;5025420;28;20201;-81
2023/06/22 11:19:34;;;;;;;8.20;7.40;;;;;;;30.27;40.95;97335.72;5026838;28;20238;-75
2023/06/22 11:22:01;;;;;;;8.43;7.07;;;;;;;29.83;42.83;97340.22;5025653;28;20567;-81
2023/06/22 11:24:28;;;;;;;8.07;7.10;;;;;;;29.39;44.47;97331.25;5026877;28;20600;-78
2023/06/22 11:26:55;;;;;;;9.03;7.73;;;;;;;29.25;45.74;97322.19;5007780;28;20600;-75
2023/06/22 11:29:25;;;;;;;8.53;7.70;;;;;;;29.31;46.07;97321.47;5008907;28;20288;-76
2023/06/22 11:32:06;;;;;;;8.10;7.30;;;;;;;29.15;46.71;97320.78;5008539;28;20225;-77
2023/06/22 11:34:34;;;;;;;8.80;7.47;;;;;;;29.22;46.70;97324.41;5025459;28;20709;-78
2023/06/22 11:37:01;;;;;;;8.40;7.37;;;;;;;29.06;46.68;97298.63;5026896;28;20202;-80
2023/06/22 11:39:28;;;;;;;7.80;7.10;;;;;;;29.43;45.74;97332.56;5025961;28;20254;-78
2023/06/22 11:42:11;;;;;;;7.97;7.23;;;;;;;29.41;44.99;97330.06;5026740;28;20207;-79
2023/06/22 11:44:38;;;;;;;7.97;7.20;;;;;;;29.27;46.49;97330.00;5026136;28;20194;-80
2023/06/22 11:47:06;;;;;;;10.93;8.00;;;;;;;29.05;46.25;97289.00;5026315;28;20303;-75
2023/06/22 11:49:33;;;;;;;8.97;8.07;;;;;;;29.10;47.80;97336.47;5026691;28;20635;-76
2023/06/22 11:52:00;;;;;;;7.73;7.00;;;;;;;28.65;49.32;97334.56;5025168;28;20202;-76
2023/06/22 11:54:27;;;;;;;8.53;7.60;;;;;;;28.61;49.82;97326.09;5026549;28;20641;-78
2023/06/22 11:56:54;;;;;;;7.67;6.73;;;;;;;28.66;49.15;97331.75;5024834;28;20261;-78
2023/06/22 11:59:22;;;;;;;7.83;7.13;;;;;;;28.91;47.13;97327.09;5026452;28;20300;-78
2023/06/22 12:01:51;;;;;;;7.30;6.60;;;;;;;28.96;45.78;97324.72;5007860;28;20195;-78
2023/06/22 12:04:18;;;;;;;8.03;7.23;;;;;;;29.11;44.91;97322.94;4992343;28;20199;-77
2023/06/22 12:06:45;;;;;;;7.87;6.73;;;;;;;29.06;43.39;97330.66;5026113;28;20277;-76
2023/06/22 12:09:13;;;;;;;7.50;6.70;;;;;;;29.37;43.19;97326.09;5025076;28;20209;-78
2023/06/22 12:11:41;;;;;;;7.30;6.60;;;;;;;29.43;43.05;97308.56;5012034;28;20669;-79
2023/06/22 12:14:08;;;;;;;6.87;6.17;;;;;;;29.69;41.92;97319.63;5028366;28;20206;-78
2023/06/22 12:16:35;;;;;;;7.23;6.53;;;;;;;29.60;43.60;97321.56;5030343;28;20224;-77
2023/06/22 12:19:02;;;;;;;7.27;6.57;;;;;;;29.97;42.96;97319.84;5028656;28;20256;-78
2023/06/22 12:21:29;;;;;;;7.87;7.07;;;;;;;29.93;43.53;97313.22;5029755;28;20202;-75
2023/06/22 12:23:56;;;;;;;9.73;6.30;;;;;;;29.70;44.04;97316.78;5029552;28;20748;-77
2023/06/22 12:26:23;;;;;;;7.13;6.43;;;;;;;29.24;45.42;97298.38;5029068;28;20646;-77
2023/06/22 12:28:50;;;;;;;8.77;7.27;;;;;;;29.36;46.57;97318.28;5012314;28;20199;-78
2023/06/22 12:31:17;;;;;;;8.07;7.00;;;;;;;29.43;45.57;97305.88;5028243;28;20666;-78
2023/06/22 12:33:45;;;;;;;8.10;7.30;;;;;;;29.23;46.05;97302.03;5030019;28;20210;-79
2023/06/22 12:36:12;;;;;;;8.40;7.60;;;;;;;29.40;46.49;97322.25;5028208;28;20651;-81
2023/06/22 12:38:39;;;;;;;7.50;6.77;;;;;;;29.47;46.99;97315.19;5030025;28;20195;-77
2023/06/22 12:41:06;;;;;;;7.70;6.80;;;;;;;29.59;46.18;97303.06;5029917;28;20706;-79
2023/06/22 12:43:33;;;;;;;7.57;6.87;;;;;;;29.15;47.31;97272.75;5029007;28;20277;-81
2023/06/22 12:46:01;;;;;;;8.30;7.40;;;;;;;29.34;46.97;97309.63;5029751;28;20294;-76
2023/06/22 12:48:42;;;;;;;14.30;8.13;;;;;;;28.93;47.58;97280.56;5006350;28;20235;-80
2023/06/22 12:51:09;;;;;;;8.47;7.47;;;;;;;29.08;48.32;97303.81;4992116;28;20611;-78
2023/06/22 12:53:37;;;;;;;8.93;7.13;;;;;;;29.07;48.14;97307.47;5007956;28;20258;-77
2023/06/22 12:56:04;;;;;;;8.37;7.57;;;;;;;29.01;49.37;97321.53;5009656;28;20210;-76
2023/06/22 12:58:31;;;;;;;9.73;7.03;;;;;;;28.79;47.91;97310.66;5009020;28;20926;-77
2023/06/22 13:00:58;;;;;;;8.63;7.83;;;;;;;28.52;49.47;97310.31;5008769;28;20231;-78
2023/06/22 13:03:27;;;;;;;10.17;7.63;;;;;;;28.51;49.88;97314.81;5009473;28;20253;-78
2023/06/22 13:05:54;;;;;;;9.77;7.10;;;;;;;28.34;49.75;97318.53;5006214;28;20821;-80
2023/06/22 13:08:22;;;;;;;8.47;6.93;;;;;;;28.34;49.82;97294.56;5009539;28;20200;-77
2023/06/22 13:11:01;;;;;;;8.17;7.43;;;;;;;28.21;50.53;97307.63;5008042;28;20673;-78